Aérodrome :
LOGIN :

S'inscrire | Disclaimer

   EN    FR    IT 

 










Légende :    VFR   VFR Marginal   IFR   IFR Intensif   IFR Très Intensif
Visi : 
Plafond : 
>= 8 km
>= 3000ft
5 à 8 km
1000 à 3000 ft
1500m à 5 km
500 à 1000 ft
800 à 1500m
200 à 500 ft
< 800m
< 200 ft
Symboles :   Orages  Brouillard  Fortes neiges  Fortes précipitations  Vent > 20 kt
SIGMETs :   Divers  Orages  Givrage  Turbulence  Onde Orograph.  Cendres Volcan.






- Altitude de l'aérodrome : 220 ft
- Code IATA : CWL


EGFF - Cardiff Rhoose

DERNIER METAR :
  • 150420Z AUTO 26019G31KT 9999 SCT041 07/03 Q0990

METARs EXPIRÉS :
  • 150350Z AUTO 27024G36KT 9999 -RA FEW012/// SCT022/// BKN044/// //////TCU 06/02 Q0990 RERA
  • 150320Z AUTO 27020G30KT 9999 BKN045 07/00 Q0989
  • 150250Z AUTO 27023G37KT 9999 SCT042 07/01 Q0989
  • 150220Z AUTO 30017KT 9999 SCT038 BKN045 05/02 Q0989
  • 150150Z AUTO 26021G33KT 9999 BKN030/// //////TCU 07/03 Q0988
  • 150120Z AUTO 25022G34KT 9999 SCT036/// BKN044/// //////TCU 07/02 Q0987

TAF AMD TAF EGFF
Valide du 15 à 02h jusqu'au 16 à 00h UTC


150226Z 1502/1524 28022G32KT 9999 SCT030
TEMPO 1502/1524 6000 SHRA BKN010
TEMPO 1502/1506 28028G42KT
PROB30
TEMPO 1502/1524 2000 +SHRAGS BKN006 BKN020CB
BECMG 1506/1509 23014KT
TEMPO 1509/1524 24018G28KT
ATIS : +44 1446 729 319



MET'MAP, la Météo Aéronautique d'un coup d'oeil ! - Copyright ORBIFLY Décembre 2007 - Disclaimer

ORBIFLY MET'MAP TEAM :

Programmation & Développement : Alexandra Zaïnal
Sur une idée originale de : Baudouin d'Aumeries
Assistance à la programmation : Marc-Olivier Méhu
Soutien technique & logistique : Manuel Goepfert

Contact : metmap@orbifly.com




SOURCES & CREDITS :

   NOAA